sensor_id;sensor_type;location;lat;lon;timestamp;P1;durP1;ratioP1;P2;durP2;ratioP2
33152;SDS011;19509;43.862;26.176;2022-11-22T00:01:08;1.50;;;1.50;;
33152;SDS011;19509;43.862;26.176;2022-11-22T00:03:33;1.90;;;1.90;;
33152;SDS011;19509;43.862;26.176;2022-11-22T00:05:59;1.60;;;1.60;;
33152;SDS011;19509;43.862;26.176;2022-11-22T00:08:24;1.40;;;1.40;;
33152;SDS011;19509;43.862;26.176;2022-11-22T00:10:50;1.90;;;1.90;;
33152;SDS011;19509;43.862;26.176;2022-11-22T00:13:18;1.70;;;1.70;;
33152;SDS011;19509;43.862;26.176;2022-11-22T00:15:55;1.87;;;1.87;;
33152;SDS011;19509;43.862;26.176;2022-11-22T00:18:29;1.80;;;1.80;;
33152;SDS011;19509;43.862;26.176;2022-11-22T00:20:55;1.50;;;1.50;;
33152;SDS011;19509;43.862;26.176;2022-11-22T00:23:21;1.40;;;1.40;;
33152;SDS011;19509;43.862;26.176;2022-11-22T00:25:47;1.60;;;1.60;;
33152;SDS011;19509;43.862;26.176;2022-11-22T00:28:13;1.70;;;1.70;;
33152;SDS011;19509;43.862;26.176;2022-11-22T00:30:38;1.70;;;1.70;;
33152;SDS011;19509;43.862;26.176;2022-11-22T00:33:04;1.73;;;1.73;;
33152;SDS011;19509;43.862;26.176;2022-11-22T00:35:29;1.80;;;1.80;;
33152;SDS011;19509;43.862;26.176;2022-11-22T00:37:54;1.63;;;1.63;;
33152;SDS011;19509;43.862;26.176;2022-11-22T00:40:20;1.40;;;1.40;;
33152;SDS011;19509;43.862;26.176;2022-11-22T00:42:45;1.67;;;1.67;;
33152;SDS011;19509;43.862;26.176;2022-11-22T00:45:11;1.53;;;1.53;;
33152;SDS011;19509;43.862;26.176;2022-11-22T00:47:36;2.00;;;2.00;;
33152;SDS011;19509;43.862;26.176;2022-11-22T00:50:02;1.90;;;1.90;;
33152;SDS011;19509;43.862;26.176;2022-11-22T00:52:28;1.60;;;1.60;;
33152;SDS011;19509;43.862;26.176;2022-11-22T00:54:54;1.70;;;1.70;;
33152;SDS011;19509;43.862;26.176;2022-11-22T00:57:19;1.70;;;1.70;;
33152;SDS011;19509;43.862;26.176;2022-11-22T00:59:44;1.60;;;1.60;;
33152;SDS011;19509;43.862;26.176;2022-11-22T01:02:10;1.80;;;1.80;;
33152;SDS011;19509;43.862;26.176;2022-11-22T01:04:35;1.70;;;1.70;;
33152;SDS011;19509;43.862;26.176;2022-11-22T01:07:01;1.90;;;1.90;;
33152;SDS011;19509;43.862;26.176;2022-11-22T01:09:27;1.90;;;1.90;;
33152;SDS011;19509;43.862;26.176;2022-11-22T01:11:52;1.70;;;1.70;;
33152;SDS011;19509;43.862;26.176;2022-11-22T01:14:18;1.60;;;1.60;;
33152;SDS011;19509;43.862;26.176;2022-11-22T01:16:44;1.80;;;1.80;;
33152;SDS011;19509;43.862;26.176;2022-11-22T01:19:10;1.80;;;1.80;;
33152;SDS011;19509;43.862;26.176;2022-11-22T01:21:36;1.70;;;1.70;;
33152;SDS011;19509;43.862;26.176;2022-11-22T01:24:02;1.60;;;1.60;;
33152;SDS011;19509;43.862;26.176;2022-11-22T01:26:27;1.80;;;1.80;;
33152;SDS011;19509;43.862;26.176;2022-11-22T01:28:53;1.70;;;1.70;;
33152;SDS011;19509;43.862;26.176;2022-11-22T01:31:18;1.60;;;1.60;;
33152;SDS011;19509;43.862;26.176;2022-11-22T01:33:44;1.40;;;1.40;;
33152;SDS011;19509;43.862;26.176;2022-11-22T01:36:09;1.67;;;1.67;;
33152;SDS011;19509;43.862;26.176;2022-11-22T01:38:35;1.43;;;1.43;;
33152;SDS011;19509;43.862;26.176;2022-11-22T01:41:00;1.67;;;1.67;;
33152;SDS011;19509;43.862;26.176;2022-11-22T01:43:26;1.60;;;1.60;;
33152;SDS011;19509;43.862;26.176;2022-11-22T01:45:53;1.77;;;1.77;;
33152;SDS011;19509;43.862;26.176;2022-11-22T01:48:24;1.70;;;1.70;;
33152;SDS011;19509;43.862;26.176;2022-11-22T01:51:01;1.57;;;1.57;;
33152;SDS011;19509;43.862;26.176;2022-11-22T01:53:39;1.60;;;1.60;;
33152;SDS011;19509;43.862;26.176;2022-11-22T01:56:06;1.57;;;1.57;;
33152;SDS011;19509;43.862;26.176;2022-11-22T01:58:36;1.73;;;1.73;;
33152;SDS011;19509;43.862;26.176;2022-11-22T02:01:06;1.63;;;1.63;;
33152;SDS011;19509;43.862;26.176;2022-11-22T02:03:32;1.60;;;1.60;;
33152;SDS011;19509;43.862;26.176;2022-11-22T02:06:01;1.60;;;1.60;;
33152;SDS011;19509;43.862;26.176;2022-11-22T02:08:29;1.60;;;1.60;;
33152;SDS011;19509;43.862;26.176;2022-11-22T02:11:02;1.50;;;1.50;;
33152;SDS011;19509;43.862;26.176;2022-11-22T02:13:28;1.60;;;1.60;;
33152;SDS011;19509;43.862;26.176;2022-11-22T02:15:56;1.60;;;1.60;;
33152;SDS011;19509;43.862;26.176;2022-11-22T02:18:22;1.60;;;1.60;;
33152;SDS011;19509;43.862;26.176;2022-11-22T02:20:48;1.60;;;1.60;;
33152;SDS011;19509;43.862;26.176;2022-11-22T02:23:19;1.73;;;1.73;;
33152;SDS011;19509;43.862;26.176;2022-11-22T02:25:54;1.70;;;1.70;;
33152;SDS011;19509;43.862;26.176;2022-11-22T02:28:23;1.67;;;1.67;;
33152;SDS011;19509;43.862;26.176;2022-11-22T02:30:51;1.50;;;1.50;;
33152;SDS011;19509;43.862;26.176;2022-11-22T02:33:16;1.57;;;1.57;;
33152;SDS011;19509;43.862;26.176;2022-11-22T02:35:41;1.50;;;1.50;;
33152;SDS011;19509;43.862;26.176;2022-11-22T02:38:12;1.40;;;1.40;;
33152;SDS011;19509;43.862;26.176;2022-11-22T02:40:42;1.60;;;1.60;;
33152;SDS011;19509;43.862;26.176;2022-11-22T02:43:13;1.50;;;1.50;;
33152;SDS011;19509;43.862;26.176;2022-11-22T02:45:42;1.70;;;1.70;;
33152;SDS011;19509;43.862;26.176;2022-11-22T02:48:09;1.70;;;1.70;;
33152;SDS011;19509;43.862;26.176;2022-11-22T02:50:36;1.40;;;1.40;;
33152;SDS011;19509;43.862;26.176;2022-11-22T02:53:02;1.50;;;1.50;;
33152;SDS011;19509;43.862;26.176;2022-11-22T02:55:28;1.50;;;1.50;;
33152;SDS011;19509;43.862;26.176;2022-11-22T02:57:54;1.67;;;1.67;;
33152;SDS011;19509;43.862;26.176;2022-11-22T03:00:19;1.50;;;1.50;;
33152;SDS011;19509;43.862;26.176;2022-11-22T03:02:45;1.60;;;1.60;;
33152;SDS011;19509;43.862;26.176;2022-11-22T03:05:10;1.63;;;1.63;;
33152;SDS011;19509;43.862;26.176;2022-11-22T03:07:36;1.43;;;1.43;;
33152;SDS011;19509;43.862;26.176;2022-11-22T03:10:01;1.60;;;1.60;;
33152;SDS011;19509;43.862;26.176;2022-11-22T03:12:27;1.47;;;1.47;;
33152;SDS011;19509;43.862;26.176;2022-11-22T03:14:53;1.60;;;1.60;;
33152;SDS011;19509;43.862;26.176;2022-11-22T03:17:18;1.60;;;1.60;;
33152;SDS011;19509;43.862;26.176;2022-11-22T03:19:43;1.70;;;1.70;;
33152;SDS011;19509;43.862;26.176;2022-11-22T03:22:09;1.60;;;1.60;;
33152;SDS011;19509;43.862;26.176;2022-11-22T03:24:34;1.40;;;1.40;;
33152;SDS011;19509;43.862;26.176;2022-11-22T03:27:00;1.53;;;1.53;;
33152;SDS011;19509;43.862;26.176;2022-11-22T03:29:25;1.40;;;1.40;;
33152;SDS011;19509;43.862;26.176;2022-11-22T03:31:50;1.53;;;1.53;;
33152;SDS011;19509;43.862;26.176;2022-11-22T03:34:16;1.43;;;1.43;;
33152;SDS011;19509;43.862;26.176;2022-11-22T03:36:42;1.40;;;1.40;;
33152;SDS011;19509;43.862;26.176;2022-11-22T03:39:07;1.40;;;1.40;;
33152;SDS011;19509;43.862;26.176;2022-11-22T03:41:33;1.30;;;1.30;;
33152;SDS011;19509;43.862;26.176;2022-11-22T03:43:58;1.50;;;1.50;;
33152;SDS011;19509;43.862;26.176;2022-11-22T03:46:24;1.40;;;1.40;;
33152;SDS011;19509;43.862;26.176;2022-11-22T03:48:49;1.60;;;1.60;;
33152;SDS011;19509;43.862;26.176;2022-11-22T03:51:15;1.53;;;1.50;;
33152;SDS011;19509;43.862;26.176;2022-11-22T03:53:40;1.50;;;1.50;;
33152;SDS011;19509;43.862;26.176;2022-11-22T03:56:06;1.47;;;1.47;;
33152;SDS011;19509;43.862;26.176;2022-11-22T03:58:31;1.60;;;1.60;;
33152;SDS011;19509;43.862;26.176;2022-11-22T04:00:57;1.70;;;1.70;;
33152;SDS011;19509;43.862;26.176;2022-11-22T04:03:23;1.80;;;1.80;;
33152;SDS011;19509;43.862;26.176;2022-11-22T04:05:49;7.63;;;7.13;;
33152;SDS011;19509;43.862;26.176;2022-11-22T04:08:14;3.40;;;3.30;;
33152;SDS011;19509;43.862;26.176;2022-11-22T04:10:40;2.40;;;2.40;;
33152;SDS011;19509;43.862;26.176;2022-11-22T04:13:06;1.83;;;1.83;;
33152;SDS011;19509;43.862;26.176;2022-11-22T04:15:31;1.90;;;1.90;;
33152;SDS011;19509;43.862;26.176;2022-11-22T04:17:57;1.80;;;1.80;;
33152;SDS011;19509;43.862;26.176;2022-11-22T04:20:23;1.80;;;1.80;;
33152;SDS011;19509;43.862;26.176;2022-11-22T04:23:10;1.90;;;1.90;;
33152;SDS011;19509;43.862;26.176;2022-11-22T04:25:47;1.80;;;1.80;;
33152;SDS011;19509;43.862;26.176;2022-11-22T04:28:15;1.67;;;1.67;;
33152;SDS011;19509;43.862;26.176;2022-11-22T04:30:42;3.20;;;3.20;;
33152;SDS011;19509;43.862;26.176;2022-11-22T04:33:26;3.90;;;3.80;;
33152;SDS011;19509;43.862;26.176;2022-11-22T04:35:51;3.70;;;3.60;;
33152;SDS011;19509;43.862;26.176;2022-11-22T04:38:17;3.83;;;3.73;;
33152;SDS011;19509;43.862;26.176;2022-11-22T04:40:43;3.43;;;3.40;;
33152;SDS011;19509;43.862;26.176;2022-11-22T04:43:20;2.30;;;2.30;;
33152;SDS011;19509;43.862;26.176;2022-11-22T04:46:05;1.60;;;1.60;;
33152;SDS011;19509;43.862;26.176;2022-11-22T04:48:31;1.80;;;1.80;;
33152;SDS011;19509;43.862;26.176;2022-11-22T04:50:57;1.77;;;1.77;;
33152;SDS011;19509;43.862;26.176;2022-11-22T04:53:41;1.70;;;1.70;;
33152;SDS011;19509;43.862;26.176;2022-11-22T04:56:06;1.80;;;1.80;;
33152;SDS011;19509;43.862;26.176;2022-11-22T04:58:31;1.80;;;1.80;;
33152;SDS011;19509;43.862;26.176;2022-11-22T05:00:57;2.30;;;2.30;;
33152;SDS011;19509;43.862;26.176;2022-11-22T05:03:22;1.97;;;1.97;;
33152;SDS011;19509;43.862;26.176;2022-11-22T05:05:48;2.40;;;2.40;;
33152;SDS011;19509;43.862;26.176;2022-11-22T05:08:14;2.13;;;2.13;;
33152;SDS011;19509;43.862;26.176;2022-11-22T05:10:40;2.33;;;2.23;;
33152;SDS011;19509;43.862;26.176;2022-11-22T05:13:22;3.00;;;2.93;;
33152;SDS011;19509;43.862;26.176;2022-11-22T05:15:56;2.97;;;2.97;;
33152;SDS011;19509;43.862;26.176;2022-11-22T05:18:23;2.60;;;2.60;;
33152;SDS011;19509;43.862;26.176;2022-11-22T05:20:49;2.10;;;2.10;;
33152;SDS011;19509;43.862;26.176;2022-11-22T05:23:15;2.20;;;2.20;;
33152;SDS011;19509;43.862;26.176;2022-11-22T05:25:59;2.20;;;2.20;;
33152;SDS011;19509;43.862;26.176;2022-11-22T05:28:28;2.10;;;2.10;;
33152;SDS011;19509;43.862;26.176;2022-11-22T05:30:55;2.50;;;2.50;;
33152;SDS011;19509;43.862;26.176;2022-11-22T05:33:21;2.43;;;2.43;;
33152;SDS011;19509;43.862;26.176;2022-11-22T05:35:47;2.50;;;2.50;;
33152;SDS011;19509;43.862;26.176;2022-11-22T05:38:13;2.53;;;2.53;;
33152;SDS011;19509;43.862;26.176;2022-11-22T05:40:38;3.30;;;3.30;;
33152;SDS011;19509;43.862;26.176;2022-11-22T05:43:03;4.00;;;3.90;;
33152;SDS011;19509;43.862;26.176;2022-11-22T05:45:29;4.30;;;4.20;;
33152;SDS011;19509;43.862;26.176;2022-11-22T05:47:55;3.37;;;3.37;;
33152;SDS011;19509;43.862;26.176;2022-11-22T05:50:20;5.90;;;5.50;;
33152;SDS011;19509;43.862;26.176;2022-11-22T05:52:46;4.77;;;4.60;;
33152;SDS011;19509;43.862;26.176;2022-11-22T05:55:11;2.93;;;2.93;;
33152;SDS011;19509;43.862;26.176;2022-11-22T05:57:37;2.70;;;2.70;;
33152;SDS011;19509;43.862;26.176;2022-11-22T06:00:03;3.20;;;3.10;;
33152;SDS011;19509;43.862;26.176;2022-11-22T06:02:29;3.50;;;3.40;;
33152;SDS011;19509;43.862;26.176;2022-11-22T06:04:55;3.00;;;3.00;;
33152;SDS011;19509;43.862;26.176;2022-11-22T06:07:21;3.13;;;3.13;;
33152;SDS011;19509;43.862;26.176;2022-11-22T06:09:46;3.50;;;3.40;;
33152;SDS011;19509;43.862;26.176;2022-11-22T06:12:12;3.30;;;3.20;;
33152;SDS011;19509;43.862;26.176;2022-11-22T06:14:37;2.90;;;2.80;;
33152;SDS011;19509;43.862;26.176;2022-11-22T06:17:03;2.60;;;2.60;;
33152;SDS011;19509;43.862;26.176;2022-11-22T06:19:28;1.80;;;1.80;;
33152;SDS011;19509;43.862;26.176;2022-11-22T06:21:54;1.70;;;1.70;;
33152;SDS011;19509;43.862;26.176;2022-11-22T06:24:19;2.00;;;2.00;;
33152;SDS011;19509;43.862;26.176;2022-11-22T06:26:44;1.70;;;1.70;;
33152;SDS011;19509;43.862;26.176;2022-11-22T06:29:10;1.90;;;1.90;;
33152;SDS011;19509;43.862;26.176;2022-11-22T06:31:35;2.00;;;2.00;;
33152;SDS011;19509;43.862;26.176;2022-11-22T06:34:01;1.80;;;1.80;;
33152;SDS011;19509;43.862;26.176;2022-11-22T06:36:30;1.50;;;1.50;;
33152;SDS011;19509;43.862;26.176;2022-11-22T06:38:57;1.87;;;1.87;;
33152;SDS011;19509;43.862;26.176;2022-11-22T06:41:23;1.77;;;1.77;;
33152;SDS011;19509;43.862;26.176;2022-11-22T06:43:51;1.60;;;1.60;;
33152;SDS011;19509;43.862;26.176;2022-11-22T06:46:18;1.50;;;1.50;;
33152;SDS011;19509;43.862;26.176;2022-11-22T06:48:45;1.60;;;1.60;;
33152;SDS011;19509;43.862;26.176;2022-11-22T06:51:15;1.60;;;1.60;;
33152;SDS011;19509;43.862;26.176;2022-11-22T06:53:42;1.37;;;1.37;;
33152;SDS011;19509;43.862;26.176;2022-11-22T06:58:38;1.50;;;1.50;;
33152;SDS011;19509;43.862;26.176;2022-11-22T07:01:04;1.33;;;1.33;;
33152;SDS011;19509;43.862;26.176;2022-11-22T07:03:41;1.50;;;1.50;;
33152;SDS011;19509;43.862;26.176;2022-11-22T07:06:08;1.40;;;1.40;;
33152;SDS011;19509;43.862;26.176;2022-11-22T07:08:35;1.50;;;1.50;;
33152;SDS011;19509;43.862;26.176;2022-11-22T07:11:01;1.30;;;1.30;;
33152;SDS011;19509;43.862;26.176;2022-11-22T07:13:32;1.37;;;1.37;;
33152;SDS011;19509;43.862;26.176;2022-11-22T07:15:59;1.37;;;1.37;;
33152;SDS011;19509;43.862;26.176;2022-11-22T07:18:26;1.40;;;1.40;;
33152;SDS011;19509;43.862;26.176;2022-11-22T07:20:52;1.20;;;1.20;;
33152;SDS011;19509;43.862;26.176;2022-11-22T07:23:23;1.40;;;1.40;;
33152;SDS011;19509;43.862;26.176;2022-11-22T07:25:49;1.13;;;1.13;;
33152;SDS011;19509;43.862;26.176;2022-11-22T07:28:14;1.30;;;1.30;;
33152;SDS011;19509;43.862;26.176;2022-11-22T07:30:40;1.30;;;1.30;;
33152;SDS011;19509;43.862;26.176;2022-11-22T07:33:06;1.30;;;1.30;;
33152;SDS011;19509;43.862;26.176;2022-11-22T07:35:32;1.10;;;1.10;;
33152;SDS011;19509;43.862;26.176;2022-11-22T07:37:57;1.30;;;1.27;;
33152;SDS011;19509;43.862;26.176;2022-11-22T07:40:23;1.27;;;1.27;;
33152;SDS011;19509;43.862;26.176;2022-11-22T07:42:49;1.43;;;1.43;;
33152;SDS011;19509;43.862;26.176;2022-11-22T07:45:14;1.20;;;1.20;;
33152;SDS011;19509;43.862;26.176;2022-11-22T07:47:39;1.47;;;1.47;;
33152;SDS011;19509;43.862;26.176;2022-11-22T07:50:05;1.50;;;1.50;;
33152;SDS011;19509;43.862;26.176;2022-11-22T07:52:31;1.23;;;1.23;;
33152;SDS011;19509;43.862;26.176;2022-11-22T07:54:56;1.27;;;1.27;;
33152;SDS011;19509;43.862;26.176;2022-11-22T07:57:21;1.23;;;1.23;;
33152;SDS011;19509;43.862;26.176;2022-11-22T07:59:47;1.20;;;1.20;;
33152;SDS011;19509;43.862;26.176;2022-11-22T08:02:12;1.10;;;1.10;;
33152;SDS011;19509;43.862;26.176;2022-11-22T08:04:38;1.30;;;1.30;;
33152;SDS011;19509;43.862;26.176;2022-11-22T08:07:03;1.30;;;1.30;;
33152;SDS011;19509;43.862;26.176;2022-11-22T08:09:29;1.33;;;1.33;;
33152;SDS011;19509;43.862;26.176;2022-11-22T08:11:54;1.37;;;1.37;;
33152;SDS011;19509;43.862;26.176;2022-11-22T08:14:21;1.77;;;1.77;;
33152;SDS011;19509;43.862;26.176;2022-11-22T08:16:47;1.37;;;1.37;;
33152;SDS011;19509;43.862;26.176;2022-11-22T08:19:12;1.80;;;1.80;;
33152;SDS011;19509;43.862;26.176;2022-11-22T08:21:45;2.17;;;2.17;;
33152;SDS011;19509;43.862;26.176;2022-11-22T08:24:11;1.40;;;1.40;;
33152;SDS011;19509;43.862;26.176;2022-11-22T08:26:37;4.97;;;4.87;;
33152;SDS011;19509;43.862;26.176;2022-11-22T08:29:03;5.10;;;4.90;;
33152;SDS011;19509;43.862;26.176;2022-11-22T08:31:33;1.50;;;1.50;;
33152;SDS011;19509;43.862;26.176;2022-11-22T08:33:59;1.40;;;1.40;;
33152;SDS011;19509;43.862;26.176;2022-11-22T08:36:28;4.90;;;4.80;;
33152;SDS011;19509;43.862;26.176;2022-11-22T08:38:53;1.97;;;1.97;;
33152;SDS011;19509;43.862;26.176;2022-11-22T08:41:19;1.23;;;1.23;;
33152;SDS011;19509;43.862;26.176;2022-11-22T08:43:45;2.33;;;2.33;;
33152;SDS011;19509;43.862;26.176;2022-11-22T08:46:10;1.20;;;1.20;;
33152;SDS011;19509;43.862;26.176;2022-11-22T08:48:36;1.10;;;1.10;;
33152;SDS011;19509;43.862;26.176;2022-11-22T08:51:06;1.20;;;1.20;;
33152;SDS011;19509;43.862;26.176;2022-11-22T08:53:33;1.30;;;1.30;;
33152;SDS011;19509;43.862;26.176;2022-11-22T08:56:01;1.40;;;1.40;;
33152;SDS011;19509;43.862;26.176;2022-11-22T08:58:30;1.50;;;1.50;;
33152;SDS011;19509;43.862;26.176;2022-11-22T09:01:02;1.73;;;1.73;;
33152;SDS011;19509;43.862;26.176;2022-11-22T09:03:32;1.10;;;1.10;;
33152;SDS011;19509;43.862;26.176;2022-11-22T09:05:59;1.10;;;1.10;;
33152;SDS011;19509;43.862;26.176;2022-11-22T09:08:28;1.30;;;1.30;;
33152;SDS011;19509;43.862;26.176;2022-11-22T09:10:55;1.30;;;1.30;;
33152;SDS011;19509;43.862;26.176;2022-11-22T09:13:24;1.10;;;1.10;;
33152;SDS011;19509;43.862;26.176;2022-11-22T09:15:50;2.50;;;2.50;;
33152;SDS011;19509;43.862;26.176;2022-11-22T09:18:15;2.00;;;2.00;;
33152;SDS011;19509;43.862;26.176;2022-11-22T09:20:41;2.20;;;2.20;;
33152;SDS011;19509;43.862;26.176;2022-11-22T09:23:06;1.60;;;1.60;;
33152;SDS011;19509;43.862;26.176;2022-11-22T09:25:31;1.30;;;1.30;;
33152;SDS011;19509;43.862;26.176;2022-11-22T09:28:00;1.13;;;1.13;;
33152;SDS011;19509;43.862;26.176;2022-11-22T09:30:28;1.17;;;1.17;;
33152;SDS011;19509;43.862;26.176;2022-11-22T09:32:54;1.20;;;1.20;;
33152;SDS011;19509;43.862;26.176;2022-11-22T09:35:20;1.30;;;1.30;;
33152;SDS011;19509;43.862;26.176;2022-11-22T09:37:45;1.30;;;1.30;;
33152;SDS011;19509;43.862;26.176;2022-11-22T09:40:11;1.00;;;1.00;;
33152;SDS011;19509;43.862;26.176;2022-11-22T09:48:26;1.20;;;1.20;;
33152;SDS011;19509;43.862;26.176;2022-11-22T09:53:44;1.50;;;1.50;;
33152;SDS011;19509;43.862;26.176;2022-11-22T09:56:17;2.77;;;2.77;;
33152;SDS011;19509;43.862;26.176;2022-11-22T09:58:52;2.20;;;2.20;;
33152;SDS011;19509;43.862;26.176;2022-11-22T10:01:26;2.70;;;2.70;;
33152;SDS011;19509;43.862;26.176;2022-11-22T10:06:47;1.70;;;1.70;;
33152;SDS011;19509;43.862;26.176;2022-11-22T10:09:19;2.30;;;2.30;;
33152;SDS011;19509;43.862;26.176;2022-11-22T10:11:59;2.37;;;2.37;;
33152;SDS011;19509;43.862;26.176;2022-11-22T10:14:47;1.27;;;1.27;;
33152;SDS011;19509;43.862;26.176;2022-11-22T10:20:22;1.00;;;1.00;;
33152;SDS011;19509;43.862;26.176;2022-11-22T10:22:47;1.60;;;1.60;;
33152;SDS011;19509;43.862;26.176;2022-11-22T10:27:52;1.20;;;1.20;;
33152;SDS011;19509;43.862;26.176;2022-11-22T10:30:22;1.17;;;1.17;;
33152;SDS011;19509;43.862;26.176;2022-11-22T10:33:08;0.93;;;0.93;;
33152;SDS011;19509;43.862;26.176;2022-11-22T10:40:56;0.90;;;0.90;;
33152;SDS011;19509;43.862;26.176;2022-11-22T10:46:16;0.90;;;0.90;;
33152;SDS011;19509;43.862;26.176;2022-11-22T10:51:43;0.77;;;0.77;;
33152;SDS011;19509;43.862;26.176;2022-11-22T11:04:52;0.90;;;0.90;;
33152;SDS011;19509;43.862;26.176;2022-11-22T11:07:20;0.80;;;0.80;;
33152;SDS011;19509;43.862;26.176;2022-11-22T11:09:50;0.93;;;0.93;;
33152;SDS011;19509;43.862;26.176;2022-11-22T11:12:24;0.90;;;0.90;;
33152;SDS011;19509;43.862;26.176;2022-11-22T11:14:59;0.90;;;0.90;;
33152;SDS011;19509;43.862;26.176;2022-11-22T11:17:32;1.00;;;1.00;;
33152;SDS011;19509;43.862;26.176;2022-11-22T11:20:03;1.00;;;1.00;;
33152;SDS011;19509;43.862;26.176;2022-11-22T11:22:38;0.80;;;0.80;;
33152;SDS011;19509;43.862;26.176;2022-11-22T11:27:51;1.00;;;1.00;;
33152;SDS011;19509;43.862;26.176;2022-11-22T11:30:17;0.80;;;0.80;;
33152;SDS011;19509;43.862;26.176;2022-11-22T11:32:52;0.87;;;0.87;;
33152;SDS011;19509;43.862;26.176;2022-11-22T11:35:20;0.90;;;0.90;;
33152;SDS011;19509;43.862;26.176;2022-11-22T11:37:48;1.00;;;1.00;;
33152;SDS011;19509;43.862;26.176;2022-11-22T11:40:26;1.00;;;1.00;;
33152;SDS011;19509;43.862;26.176;2022-11-22T11:43:13;0.93;;;0.93;;
33152;SDS011;19509;43.862;26.176;2022-11-22T11:45:43;0.87;;;0.87;;
33152;SDS011;19509;43.862;26.176;2022-11-22T11:51:04;1.03;;;1.03;;
33152;SDS011;19509;43.862;26.176;2022-11-22T11:53:32;0.83;;;0.83;;
33152;SDS011;19509;43.862;26.176;2022-11-22T11:56:16;0.80;;;0.80;;
33152;SDS011;19509;43.862;26.176;2022-11-22T11:58:51;0.70;;;0.70;;
33152;SDS011;19509;43.862;26.176;2022-11-22T12:01:20;0.60;;;0.60;;
33152;SDS011;19509;43.862;26.176;2022-11-22T12:03:55;0.80;;;0.80;;
33152;SDS011;19509;43.862;26.176;2022-11-22T12:06:27;0.70;;;0.70;;
33152;SDS011;19509;43.862;26.176;2022-11-22T12:08:54;0.70;;;0.70;;
33152;SDS011;19509;43.862;26.176;2022-11-22T12:11:26;0.90;;;0.90;;
33152;SDS011;19509;43.862;26.176;2022-11-22T12:14:11;0.70;;;0.70;;
33152;SDS011;19509;43.862;26.176;2022-11-22T12:16:45;1.00;;;1.00;;
33152;SDS011;19509;43.862;26.176;2022-11-22T12:21:59;0.80;;;0.80;;
33152;SDS011;19509;43.862;26.176;2022-11-22T12:27:22;0.60;;;0.60;;
33152;SDS011;19509;43.862;26.176;2022-11-22T12:29:47;0.63;;;0.63;;
33152;SDS011;19509;43.862;26.176;2022-11-22T12:32:15;0.80;;;0.80;;
33152;SDS011;19509;43.862;26.176;2022-11-22T12:34:52;0.80;;;0.80;;
33152;SDS011;19509;43.862;26.176;2022-11-22T12:37:23;0.80;;;0.80;;
33152;SDS011;19509;43.862;26.176;2022-11-22T12:39:55;0.70;;;0.70;;
33152;SDS011;19509;43.862;26.176;2022-11-22T12:42:28;0.80;;;0.80;;
33152;SDS011;19509;43.862;26.176;2022-11-22T12:45:08;0.83;;;0.83;;
33152;SDS011;19509;43.862;26.176;2022-11-22T12:47:41;0.80;;;0.80;;
33152;SDS011;19509;43.862;26.176;2022-11-22T12:52:40;0.83;;;0.83;;
33152;SDS011;19509;43.862;26.176;2022-11-22T12:55:20;0.80;;;0.80;;
33152;SDS011;19509;43.862;26.176;2022-11-22T13:00:17;1.10;;;1.10;;
33152;SDS011;19509;43.862;26.176;2022-11-22T13:05:47;0.80;;;0.80;;
33152;SDS011;19509;43.862;26.176;2022-11-22T13:08:22;0.70;;;0.70;;
33152;SDS011;19509;43.862;26.176;2022-11-22T13:10:56;0.60;;;0.60;;
33152;SDS011;19509;43.862;26.176;2022-11-22T13:13:31;0.60;;;0.60;;
33152;SDS011;19509;43.862;26.176;2022-11-22T13:16:01;0.53;;;0.53;;
33152;SDS011;19509;43.862;26.176;2022-11-22T13:18:31;0.60;;;0.60;;
33152;SDS011;19509;43.862;26.176;2022-11-22T13:29:27;0.70;;;0.70;;
33152;SDS011;19509;43.862;26.176;2022-11-22T13:37:24;0.60;;;0.60;;
33152;SDS011;19509;43.862;26.176;2022-11-22T13:39:52;0.77;;;0.77;;
33152;SDS011;19509;43.862;26.176;2022-11-22T13:42:26;0.60;;;0.60;;
33152;SDS011;19509;43.862;26.176;2022-11-22T13:49:57;0.73;;;0.73;;
33152;SDS011;19509;43.862;26.176;2022-11-22T13:52:27;0.60;;;0.60;;
33152;SDS011;19509;43.862;26.176;2022-11-22T13:54:59;1.13;;;0.70;;
33152;SDS011;19509;43.862;26.176;2022-11-22T14:02:48;0.80;;;0.80;;
33152;SDS011;19509;43.862;26.176;2022-11-22T14:05:18;0.70;;;0.70;;
33152;SDS011;19509;43.862;26.176;2022-11-22T14:07:44;0.67;;;0.67;;
33152;SDS011;19509;43.862;26.176;2022-11-22T14:30:21;1.40;;;1.40;;
33152;SDS011;19509;43.862;26.176;2022-11-22T14:34:04;1.40;;;1.40;;
33152;SDS011;19509;43.862;26.176;2022-11-22T14:38:31;2.10;;;1.50;;
33152;SDS011;19509;43.862;26.176;2022-11-22T14:44:02;1.13;;;1.13;;
33152;SDS011;19509;43.862;26.176;2022-11-22T14:46:51;1.27;;;1.27;;
33152;SDS011;19509;43.862;26.176;2022-11-22T14:49:39;1.20;;;1.20;;
33152;SDS011;19509;43.862;26.176;2022-11-22T14:52:13;0.90;;;0.90;;
33152;SDS011;19509;43.862;26.176;2022-11-22T14:54:45;0.90;;;0.90;;
33152;SDS011;19509;43.862;26.176;2022-11-22T14:57:16;1.43;;;0.87;;
33152;SDS011;19509;43.862;26.176;2022-11-22T15:14:12;1.10;;;1.10;;
33152;SDS011;19509;43.862;26.176;2022-11-22T15:16:23;1.40;;;1.40;;
33152;SDS011;19509;43.862;26.176;2022-11-22T15:18:52;1.20;;;1.20;;
33152;SDS011;19509;43.862;26.176;2022-11-22T15:21:28;1.13;;;1.13;;
33152;SDS011;19509;43.862;26.176;2022-11-22T15:23:57;1.03;;;1.03;;
33152;SDS011;19509;43.862;26.176;2022-11-22T15:26:25;1.30;;;1.30;;
33152;SDS011;19509;43.862;26.176;2022-11-22T15:28:55;1.60;;;1.60;;
33152;SDS011;19509;43.862;26.176;2022-11-22T15:31:40;1.67;;;1.63;;
33152;SDS011;19509;43.862;26.176;2022-11-22T15:34:14;1.70;;;1.70;;
33152;SDS011;19509;43.862;26.176;2022-11-22T15:36:49;2.00;;;2.00;;
33152;SDS011;19509;43.862;26.176;2022-11-22T15:39:26;1.70;;;1.70;;
33152;SDS011;19509;43.862;26.176;2022-11-22T15:41:54;1.53;;;1.53;;
33152;SDS011;19509;43.862;26.176;2022-11-22T15:44:23;1.40;;;1.40;;
33152;SDS011;19509;43.862;26.176;2022-11-22T15:46:49;1.40;;;1.40;;
33152;SDS011;19509;43.862;26.176;2022-11-22T15:49:18;1.20;;;1.20;;
33152;SDS011;19509;43.862;26.176;2022-11-22T15:51:50;1.20;;;1.20;;
33152;SDS011;19509;43.862;26.176;2022-11-22T15:54:20;1.23;;;1.23;;
33152;SDS011;19509;43.862;26.176;2022-11-22T15:56:49;1.00;;;1.00;;
33152;SDS011;19509;43.862;26.176;2022-11-22T15:59:50;1.10;;;1.10;;
33152;SDS011;19509;43.862;26.176;2022-11-22T16:02:20;1.20;;;1.20;;
33152;SDS011;19509;43.862;26.176;2022-11-22T16:05:00;1.03;;;1.03;;
33152;SDS011;19509;43.862;26.176;2022-11-22T16:07:30;1.30;;;1.30;;
33152;SDS011;19509;43.862;26.176;2022-11-22T16:10:14;1.10;;;1.10;;
33152;SDS011;19509;43.862;26.176;2022-11-22T16:12:50;1.53;;;1.53;;
33152;SDS011;19509;43.862;26.176;2022-11-22T16:15:29;1.73;;;1.67;;
33152;SDS011;19509;43.862;26.176;2022-11-22T16:21:21;1.20;;;1.20;;
33152;SDS011;19509;43.862;26.176;2022-11-22T16:23:43;1.10;;;1.10;;
33152;SDS011;19509;43.862;26.176;2022-11-22T16:28:51;1.30;;;1.30;;
33152;SDS011;19509;43.862;26.176;2022-11-22T16:33:50;1.30;;;1.30;;
33152;SDS011;19509;43.862;26.176;2022-11-22T16:36:19;1.30;;;1.30;;
33152;SDS011;19509;43.862;26.176;2022-11-22T16:38:45;2.20;;;2.20;;
33152;SDS011;19509;43.862;26.176;2022-11-22T16:43:43;3.00;;;2.90;;
33152;SDS011;19509;43.862;26.176;2022-11-22T16:46:11;1.60;;;1.53;;
33152;SDS011;19509;43.862;26.176;2022-11-22T16:48:38;1.33;;;1.33;;
33152;SDS011;19509;43.862;26.176;2022-11-22T16:51:04;1.30;;;1.13;;
33152;SDS011;19509;43.862;26.176;2022-11-22T16:53:44;1.03;;;1.03;;
33152;SDS011;19509;43.862;26.176;2022-11-22T16:56:21;0.97;;;0.97;;
33152;SDS011;19509;43.862;26.176;2022-11-22T16:58:48;0.90;;;0.90;;